sensor_id;sensor_type;location;lat;lon;timestamp;pressure;altitude;pressure_sealevel;temperature;humidity
54503;BME280;40411;50.090;21.954;2022-07-23T00:01:38;154123.13;;;20.20;100.00
54503;BME280;40411;50.090;21.954;2022-07-23T00:04:04;154096.06;;;20.09;100.00
54503;BME280;40411;50.090;21.954;2022-07-23T00:06:30;154076.75;;;20.01;100.00
54503;BME280;40411;50.090;21.954;2022-07-23T00:08:55;154105.06;;;20.13;100.00
54503;BME280;40411;50.090;21.954;2022-07-23T00:11:22;154092.19;;;20.07;100.00
54503;BME280;40411;50.090;21.954;2022-07-23T00:13:48;154074.19;;;20.00;100.00
54503;BME280;40411;50.090;21.954;2022-07-23T00:16:14;154044.53;;;19.89;100.00
54503;BME280;40411;50.090;21.954;2022-07-23T00:18:40;153959.53;;;19.55;100.00
54503;BME280;40411;50.090;21.954;2022-07-23T00:21:06;153986.63;;;19.66;100.00
54503;BME280;40411;50.090;21.954;2022-07-23T00:23:32;154007.22;;;19.74;100.00
54503;BME280;40411;50.090;21.954;2022-07-23T00:25:58;154017.50;;;19.78;100.00
54503;BME280;40411;50.090;21.954;2022-07-23T00:28:24;154035.53;;;19.85;100.00
54503;BME280;40411;50.090;21.954;2022-07-23T00:30:50;154026.56;;;19.81;100.00
54503;BME280;40411;50.090;21.954;2022-07-23T00:33:16;154016.22;;;19.77;100.00
54503;BME280;40411;50.090;21.954;2022-07-23T00:35:42;153993.06;;;19.68;100.00
54503;BME280;40411;50.090;21.954;2022-07-23T00:38:09;153989.19;;;19.67;100.00
54503;BME280;40411;50.090;21.954;2022-07-23T00:40:36;153993.06;;;19.68;100.00
54503;BME280;40411;50.090;21.954;2022-07-23T00:43:03;153973.69;;;19.60;100.00
54503;BME280;40411;50.090;21.954;2022-07-23T00:45:29;153989.19;;;19.67;100.00
54503;BME280;40411;50.090;21.954;2022-07-23T00:47:56;153998.22;;;19.70;100.00
54503;BME280;40411;50.090;21.954;2022-07-23T00:50:22;153989.19;;;19.67;100.00
54503;BME280;40411;50.090;21.954;2022-07-23T00:52:47;153940.22;;;19.47;100.00
54503;BME280;40411;50.090;21.954;2022-07-23T00:55:14;153933.84;;;19.45;100.00
54503;BME280;40411;50.090;21.954;2022-07-23T00:57:41;153958.25;;;19.54;100.00
54503;BME280;40411;50.090;21.954;2022-07-23T01:00:10;153963.41;;;19.56;100.00
54503;BME280;40411;50.090;21.954;2022-07-23T01:02:37;153960.81;;;19.55;100.00
54503;BME280;40411;50.090;21.954;2022-07-23T01:05:04;153948.00;;;19.50;100.00
54503;BME280;40411;50.090;21.954;2022-07-23T01:07:30;153936.38;;;19.46;100.00
54503;BME280;40411;50.090;21.954;2022-07-23T01:09:56;153857.88;;;19.14;100.00
54503;BME280;40411;50.090;21.954;2022-07-23T01:12:23;153864.31;;;19.17;100.00
54503;BME280;40411;50.090;21.954;2022-07-23T01:14:56;153899.06;;;19.31;100.00
54503;BME280;40411;50.090;21.954;2022-07-23T01:17:23;153922.22;;;19.40;100.00
54503;BME280;40411;50.090;21.954;2022-07-23T01:19:49;153915.78;;;19.37;100.00
54503;BME280;40411;50.090;21.954;2022-07-23T01:22:18;153901.63;;;19.32;100.00
54503;BME280;40411;50.090;21.954;2022-07-23T01:24:45;153932.50;;;19.44;100.00
54503;BME280;40411;50.090;21.954;2022-07-23T01:27:11;153940.22;;;19.47;100.00
54503;BME280;40411;50.090;21.954;2022-07-23T01:29:39;153946.66;;;19.50;100.00
54503;BME280;40411;50.090;21.954;2022-07-23T01:32:16;153959.53;;;19.55;100.00
54503;BME280;40411;50.090;21.954;2022-07-23T01:34:42;153883.59;;;19.25;100.00
54503;BME280;40411;50.090;21.954;2022-07-23T01:37:08;153883.59;;;19.25;100.00
54503;BME280;40411;50.090;21.954;2022-07-23T01:39:34;153863.00;;;19.16;100.00
54503;BME280;40411;50.090;21.954;2022-07-23T01:42:00;153860.44;;;19.15;100.00
54503;BME280;40411;50.090;21.954;2022-07-23T01:44:27;153868.16;;;19.18;100.00
54503;BME280;40411;50.090;21.954;2022-07-23T01:46:53;153799.94;;;18.91;100.00
54503;BME280;40411;50.090;21.954;2022-07-23T01:49:20;153765.22;;;18.78;100.00
54503;BME280;40411;50.090;21.954;2022-07-23T01:51:55;153743.28;;;18.69;100.00
54503;BME280;40411;50.090;21.954;2022-07-23T01:54:45;153774.25;;;18.81;100.00
54503;BME280;40411;50.090;21.954;2022-07-23T01:57:11;153788.41;;;18.87;100.00
54503;BME280;40411;50.090;21.954;2022-07-23T01:59:37;153799.94;;;18.91;100.00
54503;BME280;40411;50.090;21.954;2022-07-23T02:02:05;153734.31;;;18.65;100.00
54503;BME280;40411;50.090;21.954;2022-07-23T02:04:32;153686.69;;;18.46;100.00
54503;BME280;40411;50.090;21.954;2022-07-23T02:07:03;153711.16;;;18.56;100.00
54503;BME280;40411;50.090;21.954;2022-07-23T02:09:29;153704.72;;;18.53;100.00
54503;BME280;40411;50.090;21.954;2022-07-23T02:11:55;153770.38;;;18.80;100.00
54503;BME280;40411;50.090;21.954;2022-07-23T02:14:21;153721.44;;;18.60;100.00
54503;BME280;40411;50.090;21.954;2022-07-23T02:16:47;153664.84;;;18.38;100.00
54503;BME280;40411;50.090;21.954;2022-07-23T02:19:14;153648.13;;;18.31;100.00
54503;BME280;40411;50.090;21.954;2022-07-23T02:21:40;153621.13;;;18.20;100.00
54503;BME280;40411;50.090;21.954;2022-07-23T02:24:06;153608.25;;;18.15;100.00
54503;BME280;40411;50.090;21.954;2022-07-23T02:26:32;153626.28;;;18.22;100.00
54503;BME280;40411;50.090;21.954;2022-07-23T02:29:02;153615.97;;;18.18;100.00
54503;BME280;40411;50.090;21.954;2022-07-23T02:31:29;153623.66;;;18.21;100.00
54503;BME280;40411;50.090;21.954;2022-07-23T02:33:56;153641.69;;;18.28;100.00
54503;BME280;40411;50.090;21.954;2022-07-23T02:36:23;153672.53;;;18.41;100.00
54503;BME280;40411;50.090;21.954;2022-07-23T02:38:51;153681.59;;;18.44;100.00
54503;BME280;40411;50.090;21.954;2022-07-23T02:41:17;153680.25;;;18.44;100.00
54503;BME280;40411;50.090;21.954;2022-07-23T02:43:43;153700.84;;;18.52;100.00
54503;BME280;40411;50.090;21.954;2022-07-23T02:46:11;153670.00;;;18.40;100.00
54503;BME280;40411;50.090;21.954;2022-07-23T02:48:38;153680.25;;;18.44;100.00
54503;BME280;40411;50.090;21.954;2022-07-23T02:51:04;153670.00;;;18.40;100.00
54503;BME280;40411;50.090;21.954;2022-07-23T02:53:36;153657.13;;;18.35;100.00
54503;BME280;40411;50.090;21.954;2022-07-23T02:56:02;153658.41;;;18.35;100.00
54503;BME280;40411;50.090;21.954;2022-07-23T02:58:28;153651.97;;;18.33;100.00
54503;BME280;40411;50.090;21.954;2022-07-23T03:00:54;153677.69;;;18.43;100.00
54503;BME280;40411;50.090;21.954;2022-07-23T03:03:20;153672.53;;;18.41;100.00
54503;BME280;40411;50.090;21.954;2022-07-23T03:05:46;153691.84;;;18.48;100.00
54503;BME280;40411;50.090;21.954;2022-07-23T03:08:12;153664.84;;;18.38;100.00
54503;BME280;40411;50.090;21.954;2022-07-23T03:10:41;153636.53;;;18.26;100.00
54503;BME280;40411;50.090;21.954;2022-07-23T03:13:07;153642.97;;;18.29;100.00
54503;BME280;40411;50.090;21.954;2022-07-23T03:15:33;153668.72;;;18.39;100.00
54503;BME280;40411;50.090;21.954;2022-07-23T03:17:59;153686.69;;;18.46;100.00
54503;BME280;40411;50.090;21.954;2022-07-23T03:20:25;153664.84;;;18.38;100.00
54503;BME280;40411;50.090;21.954;2022-07-23T03:22:52;153695.72;;;18.50;100.00
54503;BME280;40411;50.090;21.954;2022-07-23T03:25:18;153716.28;;;18.58;100.00
54503;BME280;40411;50.090;21.954;2022-07-23T03:27:44;153742.00;;;18.68;100.00
54503;BME280;40411;50.090;21.954;2022-07-23T03:30:11;153793.56;;;18.89;100.00
54503;BME280;40411;50.090;21.954;2022-07-23T03:32:37;153860.44;;;19.15;100.00
54503;BME280;40411;50.090;21.954;2022-07-23T03:35:04;153895.19;;;19.29;100.00
54503;BME280;40411;50.090;21.954;2022-07-23T03:37:31;153927.38;;;19.42;100.00
54503;BME280;40411;50.090;21.954;2022-07-23T03:39:58;153971.16;;;19.59;100.00
54503;BME280;40411;50.090;21.954;2022-07-23T03:42:24;153964.69;;;19.57;100.00
54503;BME280;40411;50.090;21.954;2022-07-23T03:44:50;153989.19;;;19.67;100.00
54503;BME280;40411;50.090;21.954;2022-07-23T03:47:16;153982.75;;;19.64;100.00
54503;BME280;40411;50.090;21.954;2022-07-23T03:49:43;154042.00;;;19.88;100.00
54503;BME280;40411;50.090;21.954;2022-07-23T03:52:09;154053.59;;;19.92;100.00
54503;BME280;40411;50.090;21.954;2022-07-23T03:54:35;154043.25;;;19.88;100.00
54503;BME280;40411;50.090;21.954;2022-07-23T03:57:01;154067.75;;;19.98;100.00
54503;BME280;40411;50.090;21.954;2022-07-23T03:59:28;154074.19;;;20.00;100.00
54503;BME280;40411;50.090;21.954;2022-07-23T04:01:54;154098.63;;;20.10;100.00
54503;BME280;40411;50.090;21.954;2022-07-23T04:04:20;154125.69;;;20.21;100.00
54503;BME280;40411;50.090;21.954;2022-07-23T04:06:46;154138.56;;;20.26;100.00
54503;BME280;40411;50.090;21.954;2022-07-23T04:09:12;154134.69;;;20.24;100.00
54503;BME280;40411;50.090;21.954;2022-07-23T04:11:38;154154.00;;;20.32;100.00
54503;BME280;40411;50.090;21.954;2022-07-23T04:14:04;154209.44;;;20.54;100.00
54503;BME280;40411;50.090;21.954;2022-07-23T04:16:30;154236.50;;;20.65;100.00
54503;BME280;40411;50.090;21.954;2022-07-23T04:18:59;154215.88;;;20.57;100.00
54503;BME280;40411;50.090;21.954;2022-07-23T04:21:28;154262.22;;;20.75;100.00
54503;BME280;40411;50.090;21.954;2022-07-23T04:23:54;154331.78;;;21.03;100.00
54503;BME280;40411;50.090;21.954;2022-07-23T04:26:21;154389.81;;;21.26;100.00
54503;BME280;40411;50.090;21.954;2022-07-23T04:28:47;154422.03;;;21.38;100.00
54503;BME280;40411;50.090;21.954;2022-07-23T04:31:13;154411.69;;;21.34;100.00
54503;BME280;40411;50.090;21.954;2022-07-23T04:33:39;154411.69;;;21.34;100.00
54503;BME280;40411;50.090;21.954;2022-07-23T04:36:07;154459.38;;;21.53;100.00
54503;BME280;40411;50.090;21.954;2022-07-23T04:38:33;154486.47;;;21.64;100.00
54503;BME280;40411;50.090;21.954;2022-07-23T04:41:01;154517.41;;;21.76;100.00
54503;BME280;40411;50.090;21.954;2022-07-23T04:43:27;154553.50;;;21.91;100.00
54503;BME280;40411;50.090;21.954;2022-07-23T04:45:54;154641.19;;;22.25;100.00
54503;BME280;40411;50.090;21.954;2022-07-23T04:48:20;154758.53;;;22.72;100.00
54503;BME280;40411;50.090;21.954;2022-07-23T04:50:48;154834.66;;;23.02;100.00
54503;BME280;40411;50.090;21.954;2022-07-23T04:53:18;154935.28;;;23.42;100.00
54503;BME280;40411;50.090;21.954;2022-07-23T04:55:46;155028.19;;;23.79;100.00
54503;BME280;40411;50.090;21.954;2022-07-23T04:58:12;155104.34;;;24.09;100.00
54503;BME280;40411;50.090;21.954;2022-07-23T05:00:38;155126.28;;;24.18;100.00
54503;BME280;40411;50.090;21.954;2022-07-23T05:03:04;155054.03;;;23.89;100.00
54503;BME280;40411;50.090;21.954;2022-07-23T05:05:31;155113.41;;;24.13;100.00
54503;BME280;40411;50.090;21.954;2022-07-23T05:08:05;155143.06;;;24.24;100.00
54503;BME280;40411;50.090;21.954;2022-07-23T05:10:35;155135.34;;;24.21;100.00
54503;BME280;40411;50.090;21.954;2022-07-23T05:13:01;155118.53;;;24.15;100.00
54503;BME280;40411;50.090;21.954;2022-07-23T05:15:27;155046.28;;;23.86;100.00
54503;BME280;40411;50.090;21.954;2022-07-23T05:17:53;155082.41;;;24.00;100.00
54503;BME280;40411;50.090;21.954;2022-07-23T05:20:20;155103.06;;;24.08;100.00
54503;BME280;40411;50.090;21.954;2022-07-23T05:22:46;155103.06;;;24.08;100.00
54503;BME280;40411;50.090;21.954;2022-07-23T05:25:12;155134.00;;;24.21;100.00
54503;BME280;40411;50.090;21.954;2022-07-23T05:27:38;155156.00;;;24.29;100.00
54503;BME280;40411;50.090;21.954;2022-07-23T05:30:04;155185.66;;;24.41;100.00
54503;BME280;40411;50.090;21.954;2022-07-23T05:32:33;155217.97;;;24.54;100.00
54503;BME280;40411;50.090;21.954;2022-07-23T05:35:08;155248.97;;;24.66;100.00
54503;BME280;40411;50.090;21.954;2022-07-23T05:37:38;155268.34;;;24.74;100.00
54503;BME280;40411;50.090;21.954;2022-07-23T05:40:09;155254.16;;;24.68;100.00
54503;BME280;40411;50.090;21.954;2022-07-23T05:42:38;155286.38;;;24.81;100.00
54503;BME280;40411;50.090;21.954;2022-07-23T05:45:05;155378.09;;;25.17;100.00
54503;BME280;40411;50.090;21.954;2022-07-23T05:47:46;155444.00;;;25.44;100.00
54503;BME280;40411;50.090;21.954;2022-07-23T05:50:18;155433.63;;;25.39;100.00
54503;BME280;40411;50.090;21.954;2022-07-23T05:52:47;155482.72;;;25.59;100.00
54503;BME280;40411;50.090;21.954;2022-07-23T05:55:36;155548.63;;;25.85;100.00
54503;BME280;40411;50.090;21.954;2022-07-23T05:58:02;155591.25;;;26.02;100.00
54503;BME280;40411;50.090;21.954;2022-07-23T06:00:28;155593.88;;;26.03;100.00
54503;BME280;40411;50.090;21.954;2022-07-23T06:02:55;155617.09;;;26.12;100.00
54503;BME280;40411;50.090;21.954;2022-07-23T06:05:21;155586.13;;;26.00;100.00
54503;BME280;40411;50.090;21.954;2022-07-23T06:07:47;155627.47;;;26.16;100.00
54503;BME280;40411;50.090;21.954;2022-07-23T06:10:15;155649.41;;;26.25;100.00
54503;BME280;40411;50.090;21.954;2022-07-23T06:12:41;155733.47;;;26.58;100.00
54503;BME280;40411;50.090;21.954;2022-07-23T06:15:08;155712.72;;;26.50;100.00
54503;BME280;40411;50.090;21.954;2022-07-23T06:17:34;155760.56;;;26.69;100.00
54503;BME280;40411;50.090;21.954;2022-07-23T06:20:02;155816.13;;;26.91;100.00
54503;BME280;40411;50.090;21.954;2022-07-23T06:22:28;155893.72;;;27.22;100.00
54503;BME280;40411;50.090;21.954;2022-07-23T06:24:54;155932.53;;;27.37;100.00
54503;BME280;40411;50.090;21.954;2022-07-23T06:27:21;155976.47;;;27.54;99.14
54503;BME280;40411;50.090;21.954;2022-07-23T06:29:46;155990.69;;;27.60;93.91
54503;BME280;40411;50.090;21.954;2022-07-23T06:32:12;156052.81;;;27.84;95.32
54503;BME280;40411;50.090;21.954;2022-07-23T06:34:38;156045.06;;;27.81;94.81
54503;BME280;40411;50.090;21.954;2022-07-23T06:37:04;156122.66;;;28.12;97.00
54503;BME280;40411;50.090;21.954;2022-07-23T06:39:30;156151.09;;;28.23;95.43
54503;BME280;40411;50.090;21.954;2022-07-23T06:41:57;156174.38;;;28.33;95.36
54503;BME280;40411;50.090;21.954;2022-07-23T06:44:35;156252.03;;;28.63;93.36
54503;BME280;40411;50.090;21.954;2022-07-23T06:47:01;156499.19;;;29.61;90.44
54503;BME280;40411;50.090;21.954;2022-07-23T06:49:27;156737.50;;;30.55;87.28
54503;BME280;40411;50.090;21.954;2022-07-23T06:51:57;156968.13;;;31.46;79.82
54503;BME280;40411;50.090;21.954;2022-07-23T06:54:23;157030.31;;;31.71;78.30
54503;BME280;40411;50.090;21.954;2022-07-23T06:56:49;157185.81;;;32.32;74.84
54503;BME280;40411;50.090;21.954;2022-07-23T06:59:16;157349.16;;;32.97;69.20
54503;BME280;40411;50.090;21.954;2022-07-23T07:01:42;157414.00;;;33.22;65.55
54503;BME280;40411;50.090;21.954;2022-07-23T07:04:08;157603.38;;;33.97;54.95
54503;BME280;40411;50.090;21.954;2022-07-23T07:06:34;157689.00;;;34.31;54.79
54503;BME280;40411;50.090;21.954;2022-07-23T07:09:00;157701.97;;;34.36;50.40
54503;BME280;40411;50.090;21.954;2022-07-23T07:11:26;157800.63;;;34.75;51.42
54503;BME280;40411;50.090;21.954;2022-07-23T07:13:52;157894.06;;;35.11;49.85
54503;BME280;40411;50.090;21.954;2022-07-23T07:16:18;157351.75;;;32.98;54.95
54503;BME280;40411;50.090;21.954;2022-07-23T07:18:44;157742.16;;;34.52;54.29
54503;BME280;40411;50.090;21.954;2022-07-23T07:21:10;157762.97;;;34.60;55.14
54503;BME280;40411;50.090;21.954;2022-07-23T07:23:36;157733.09;;;34.48;52.50
54503;BME280;40411;50.090;21.954;2022-07-23T07:26:01;157751.28;;;34.55;52.70
54503;BME280;40411;50.090;21.954;2022-07-23T07:28:27;157704.56;;;34.37;50.87
54503;BME280;40411;50.090;21.954;2022-07-23T07:30:53;157615.00;;;34.01;52.87
54503;BME280;40411;50.090;21.954;2022-07-23T07:33:19;157718.81;;;34.42;52.68
54503;BME280;40411;50.090;21.954;2022-07-23T07:35:46;157556.66;;;33.78;54.10
54503;BME280;40411;50.090;21.954;2022-07-23T07:38:12;157567.06;;;33.83;54.35
54503;BME280;40411;50.090;21.954;2022-07-23T07:40:38;157538.53;;;33.71;55.63
54503;BME280;40411;50.090;21.954;2022-07-23T07:43:04;157878.44;;;35.05;53.75
54503;BME280;40411;50.090;21.954;2022-07-23T07:45:30;157949.84;;;35.33;49.66
54503;BME280;40411;50.090;21.954;2022-07-23T07:47:56;157869.34;;;35.02;52.20
54503;BME280;40411;50.090;21.954;2022-07-23T07:50:23;158052.38;;;35.74;48.68
54503;BME280;40411;50.090;21.954;2022-07-23T07:52:49;158244.53;;;36.50;51.95
54503;BME280;40411;50.090;21.954;2022-07-23T07:55:15;158254.97;;;36.54;50.15
54503;BME280;40411;50.090;21.954;2022-07-23T07:57:41;158295.25;;;36.70;50.78
54503;BME280;40411;50.090;21.954;2022-07-23T08:00:09;158309.53;;;36.75;49.61
54503;BME280;40411;50.090;21.954;2022-07-23T08:02:46;158601.78;;;37.90;50.25
54503;BME280;40411;50.090;21.954;2022-07-23T08:05:14;158525.13;;;37.60;47.31
54503;BME280;40411;50.090;21.954;2022-07-23T08:07:40;158165.34;;;36.18;46.27
54503;BME280;40411;50.090;21.954;2022-07-23T08:10:07;158177.06;;;36.23;50.33
54503;BME280;40411;50.090;21.954;2022-07-23T08:13:00;158195.19;;;36.30;50.55
54503;BME280;40411;50.090;21.954;2022-07-23T08:15:28;158426.41;;;37.21;50.16
54503;BME280;40411;50.090;21.954;2022-07-23T08:17:54;158138.09;;;36.08;49.51
54503;BME280;40411;50.090;21.954;2022-07-23T08:20:22;158293.91;;;36.69;47.87
54503;BME280;40411;50.090;21.954;2022-07-23T08:25:22;158600.47;;;37.90;42.76
54503;BME280;40411;50.090;21.954;2022-07-23T08:27:49;158584.91;;;37.84;43.80
54503;BME280;40411;50.090;21.954;2022-07-23T08:30:15;158548.50;;;37.69;43.19
54503;BME280;40411;50.090;21.954;2022-07-23T08:32:56;158613.53;;;37.95;41.41
54503;BME280;40411;50.090;21.954;2022-07-23T08:37:53;158673.25;;;38.18;44.27
54503;BME280;40411;50.090;21.954;2022-07-23T08:40:19;158760.31;;;38.53;41.56
54503;BME280;40411;50.090;21.954;2022-07-23T08:42:50;158807.13;;;38.71;43.55
54503;BME280;40411;50.090;21.954;2022-07-23T08:45:18;158808.41;;;38.72;43.25
54503;BME280;40411;50.090;21.954;2022-07-23T08:47:53;159039.81;;;39.63;38.30
54503;BME280;40411;50.090;21.954;2022-07-23T08:50:20;158882.53;;;39.01;37.30
54503;BME280;40411;50.090;21.954;2022-07-23T08:52:48;158612.13;;;37.94;40.56
54503;BME280;40411;50.090;21.954;2022-07-23T08:55:16;158896.84;;;39.06;41.65
54503;BME280;40411;50.090;21.954;2022-07-23T08:57:43;158831.78;;;38.81;40.79
54503;BME280;40411;50.090;21.954;2022-07-23T09:00:10;158720.03;;;38.37;37.37
54503;BME280;40411;50.090;21.954;2022-07-23T09:02:42;158740.88;;;38.45;37.93
54503;BME280;40411;50.090;21.954;2022-07-23T09:05:09;158972.22;;;39.36;38.70
54503;BME280;40411;50.090;21.954;2022-07-23T09:07:37;159026.81;;;39.58;32.37
54503;BME280;40411;50.090;21.954;2022-07-23T09:10:09;159225.78;;;40.36;31.34
54503;BME280;40411;50.090;21.954;2022-07-23T09:12:36;159225.78;;;40.36;27.96
54503;BME280;40411;50.090;21.954;2022-07-23T09:15:07;159228.38;;;40.37;30.55
54503;BME280;40411;50.090;21.954;2022-07-23T09:17:39;158879.91;;;39.00;32.19
54503;BME280;40411;50.090;21.954;2022-07-23T09:20:14;159067.13;;;39.73;33.78
54503;BME280;40411;50.090;21.954;2022-07-23T09:22:45;159331.16;;;40.77;32.77
54503;BME280;40411;50.090;21.954;2022-07-23T09:25:17;159333.75;;;40.78;30.91
54503;BME280;40411;50.090;21.954;2022-07-23T09:30:15;158954.00;;;39.29;30.61
54503;BME280;40411;50.090;21.954;2022-07-23T09:32:42;159106.16;;;39.89;32.82
54503;BME280;40411;50.090;21.954;2022-07-23T09:35:08;158987.81;;;39.42;33.75
54503;BME280;40411;50.090;21.954;2022-07-23T09:37:34;158830.50;;;38.80;30.37
54503;BME280;40411;50.090;21.954;2022-07-23T09:40:08;158977.44;;;39.38;31.79
54503;BME280;40411;50.090;21.954;2022-07-23T09:42:35;158831.78;;;38.81;31.95
54503;BME280;40411;50.090;21.954;2022-07-23T09:45:01;158803.19;;;38.70;34.70
54503;BME280;40411;50.090;21.954;2022-07-23T09:47:29;158912.41;;;39.13;31.73
54503;BME280;40411;50.090;21.954;2022-07-23T09:52:27;159055.41;;;39.69;36.86
54503;BME280;40411;50.090;21.954;2022-07-23T09:55:01;158749.97;;;38.49;34.02
54503;BME280;40411;50.090;21.954;2022-07-23T09:57:28;158866.91;;;38.95;38.97
54503;BME280;40411;50.090;21.954;2022-07-23T09:59:57;158930.59;;;39.20;29.83
54503;BME280;40411;50.090;21.954;2022-07-23T10:02:24;158935.81;;;39.22;31.42
54503;BME280;40411;50.090;21.954;2022-07-23T10:05:11;158804.53;;;38.70;31.19
54503;BME280;40411;50.090;21.954;2022-07-23T10:07:57;158913.72;;;39.13;31.91
54503;BME280;40411;50.090;21.954;2022-07-23T10:10:48;159050.19;;;39.67;29.55
54503;BME280;40411;50.090;21.954;2022-07-23T10:13:48;158961.84;;;39.32;29.62
54503;BME280;40411;50.090;21.954;2022-07-23T10:16:28;158924.09;;;39.17;31.48
54503;BME280;40411;50.090;21.954;2022-07-23T10:18:55;158959.22;;;39.31;30.53
54503;BME280;40411;50.090;21.954;2022-07-23T10:21:49;158985.22;;;39.41;30.71
54503;BME280;40411;50.090;21.954;2022-07-23T10:29:57;158297.81;;;36.71;34.50
54503;BME280;40411;50.090;21.954;2022-07-23T10:32:49;158435.47;;;37.25;34.58
54503;BME280;40411;50.090;21.954;2022-07-23T10:35:36;158599.19;;;37.89;33.85
54503;BME280;40411;50.090;21.954;2022-07-23T10:38:25;158712.25;;;38.34;31.36
54503;BME280;40411;50.090;21.954;2022-07-23T10:41:04;158681.03;;;38.21;31.75
54503;BME280;40411;50.090;21.954;2022-07-23T10:43:31;158811.00;;;38.73;32.00
54503;BME280;40411;50.090;21.954;2022-07-23T10:46:25;158397.84;;;37.10;32.83
54503;BME280;40411;50.090;21.954;2022-07-23T10:49:32;158764.25;;;38.54;33.60
54503;BME280;40411;50.090;21.954;2022-07-23T10:57:06;157846.00;;;34.92;36.59
54503;BME280;40411;50.090;21.954;2022-07-23T11:03:27;158034.25;;;35.67;39.68
54503;BME280;40411;50.090;21.954;2022-07-23T11:05:44;157825.25;;;34.84;42.20
54503;BME280;40411;50.090;21.954;2022-07-23T11:08:18;158038.13;;;35.68;40.39
54503;BME280;40411;50.090;21.954;2022-07-23T11:11:07;158318.59;;;36.79;36.87
54503;BME280;40411;50.090;21.954;2022-07-23T11:13:36;158601.78;;;37.90;35.24
54503;BME280;40411;50.090;21.954;2022-07-23T11:16:07;158696.63;;;38.28;35.25
54503;BME280;40411;50.090;21.954;2022-07-23T11:24:09;158785.03;;;38.62;34.29
54503;BME280;40411;50.090;21.954;2022-07-23T11:34:35;158909.78;;;39.11;33.00
54503;BME280;40411;50.090;21.954;2022-07-23T11:37:06;158894.22;;;39.05;30.79
54503;BME280;40411;50.090;21.954;2022-07-23T11:39:33;158946.22;;;39.26;29.85
54503;BME280;40411;50.090;21.954;2022-07-23T11:42:01;158764.25;;;38.54;31.29
54503;BME280;40411;50.090;21.954;2022-07-23T11:44:32;158727.84;;;38.40;30.44
54503;BME280;40411;50.090;21.954;2022-07-23T11:47:03;158734.38;;;38.42;31.42
54503;BME280;40411;50.090;21.954;2022-07-23T11:49:30;158514.78;;;37.56;30.86
54503;BME280;40411;50.090;21.954;2022-07-23T11:52:28;158586.19;;;37.84;31.13
54503;BME280;40411;50.090;21.954;2022-07-23T11:55:00;158535.56;;;37.64;36.52
54503;BME280;40411;50.090;21.954;2022-07-23T11:57:28;158777.25;;;38.59;34.81
54503;BME280;40411;50.090;21.954;2022-07-23T12:00:03;158695.34;;;38.27;33.60
54503;BME280;40411;50.090;21.954;2022-07-23T12:02:39;158657.69;;;38.12;35.77
54503;BME280;40411;50.090;21.954;2022-07-23T12:05:06;158517.34;;;37.57;34.53
54503;BME280;40411;50.090;21.954;2022-07-23T12:07:36;158647.25;;;38.08;32.53
54503;BME280;40411;50.090;21.954;2022-07-23T12:10:19;158727.84;;;38.40;32.23
54503;BME280;40411;50.090;21.954;2022-07-23T12:15:17;158747.31;;;38.48;31.31
54503;BME280;40411;50.090;21.954;2022-07-23T12:17:45;158710.91;;;38.33;31.70
54503;BME280;40411;50.090;21.954;2022-07-23T12:20:17;158616.09;;;37.96;30.04
54503;BME280;40411;50.090;21.954;2022-07-23T12:22:45;158573.19;;;37.79;30.15
54503;BME280;40411;50.090;21.954;2022-07-23T12:25:15;158644.69;;;38.07;31.78
54503;BME280;40411;50.090;21.954;2022-07-23T12:27:42;158623.91;;;37.99;31.13
54503;BME280;40411;50.090;21.954;2022-07-23T12:30:21;158710.91;;;38.33;32.38
54503;BME280;40411;50.090;21.954;2022-07-23T12:32:50;158712.25;;;38.34;30.00
54503;BME280;40411;50.090;21.954;2022-07-23T12:35:17;158403.03;;;37.12;31.46
54503;BME280;40411;50.090;21.954;2022-07-23T12:37:45;158579.69;;;37.82;29.54
54503;BME280;40411;50.090;21.954;2022-07-23T12:40:32;158527.72;;;37.61;31.32
54503;BME280;40411;50.090;21.954;2022-07-23T12:43:06;158171.84;;;36.21;35.18
54503;BME280;40411;50.090;21.954;2022-07-23T12:45:55;157803.19;;;34.76;39.87
54503;BME280;40411;50.090;21.954;2022-07-23T12:48:32;157692.88;;;34.32;36.91
54503;BME280;40411;50.090;21.954;2022-07-23T12:51:08;157821.38;;;34.83;38.90
54503;BME280;40411;50.090;21.954;2022-07-23T12:53:43;158131.59;;;36.05;37.84
54503;BME280;40411;50.090;21.954;2022-07-23T12:56:12;158262.75;;;36.57;36.14
54503;BME280;40411;50.090;21.954;2022-07-23T12:58:41;158416.03;;;37.17;33.25
54503;BME280;40411;50.090;21.954;2022-07-23T13:01:07;158365.34;;;36.97;33.85
54503;BME280;40411;50.090;21.954;2022-07-23T13:03:36;158380.97;;;37.03;35.64
54503;BME280;40411;50.090;21.954;2022-07-23T13:06:06;158479.66;;;37.42;33.28
54503;BME280;40411;50.090;21.954;2022-07-23T13:08:33;158600.47;;;37.90;35.07
54503;BME280;40411;50.090;21.954;2022-07-23T13:11:00;158514.78;;;37.56;34.96
54503;BME280;40411;50.090;21.954;2022-07-23T13:13:29;158509.56;;;37.54;31.17
54503;BME280;40411;50.090;21.954;2022-07-23T13:15:56;158413.41;;;37.16;30.59
54503;BME280;40411;50.090;21.954;2022-07-23T13:18:24;158544.63;;;37.68;31.55
54503;BME280;40411;50.090;21.954;2022-07-23T13:20:51;158431.59;;;37.23;32.18
54503;BME280;40411;50.090;21.954;2022-07-23T13:23:17;158610.84;;;37.94;34.81
54503;BME280;40411;50.090;21.954;2022-07-23T13:25:44;158545.91;;;37.68;34.90